createdAt,value
2019-04-05T00:00:15.198Z,994.48
2019-04-05T00:01:15.195Z,994.53
2019-04-05T00:02:15.168Z,994.52
2019-04-05T00:03:15.187Z,994.54
2019-04-05T00:04:15.143Z,994.59
2019-04-05T00:05:15.140Z,994.57
2019-04-05T00:06:15.127Z,994.56
2019-04-05T00:07:15.119Z,994.57
2019-04-05T00:08:15.102Z,994.59
2019-04-05T00:09:15.108Z,994.54
2019-04-05T00:10:15.074Z,994.55
2019-04-05T00:11:15.061Z,994.57
2019-04-05T00:12:15.057Z,994.60
2019-04-05T00:13:15.048Z,994.63
2019-04-05T00:14:15.103Z,994.60
2019-04-05T00:15:16.166Z,994.63
2019-04-05T00:16:15.005Z,994.68
2019-04-05T00:17:15.020Z,994.65
2019-04-05T00:18:15.008Z,994.65
2019-04-05T00:19:14.986Z,994.61
2019-04-05T00:20:14.999Z,994.62
2019-04-05T00:21:14.953Z,994.63
2019-04-05T00:22:14.943Z,994.64
2019-04-05T00:23:14.927Z,994.60
2019-04-05T00:24:14.918Z,994.60
2019-04-05T00:25:14.936Z,994.64
2019-04-05T00:26:14.939Z,994.59
2019-04-05T00:27:14.907Z,994.59
2019-04-05T00:28:14.878Z,994.62
2019-04-05T00:29:14.863Z,994.62
2019-04-05T00:30:14.873Z,994.62
2019-04-05T00:31:14.846Z,994.64
2019-04-05T00:32:14.833Z,994.59
2019-04-05T00:33:14.819Z,994.64
2019-04-05T00:34:14.805Z,994.58
2019-04-05T00:35:14.821Z,994.53
2019-04-05T00:36:14.799Z,994.60
2019-04-05T00:37:14.831Z,994.57
2019-04-05T00:38:14.780Z,994.56
2019-04-05T00:39:14.759Z,994.58
2019-04-05T00:40:14.772Z,994.52
2019-04-05T00:41:14.729Z,994.60
2019-04-05T00:42:14.753Z,994.62
2019-04-05T00:43:14.712Z,994.60
2019-04-05T00:44:14.699Z,994.61
2019-04-05T00:45:27.172Z,994.65
2019-04-05T00:46:15.687Z,994.67
2019-04-05T00:47:14.661Z,994.63
2019-04-05T00:48:14.667Z,994.64
2019-04-05T00:49:14.661Z,994.71
2019-04-05T00:50:14.644Z,994.67
2019-04-05T00:51:14.626Z,994.68
2019-04-05T00:52:14.608Z,994.67
2019-04-05T00:53:15.130Z,994.70
2019-04-05T00:54:14.585Z,994.68
2019-04-05T00:55:14.575Z,994.73
2019-04-05T00:56:14.569Z,994.70
2019-04-05T00:57:14.577Z,994.76
2019-04-05T00:58:14.568Z,994.77
2019-04-05T00:59:14.546Z,994.76
2019-04-05T01:00:14.538Z,994.73
2019-04-05T01:01:14.512Z,994.71
2019-04-05T01:02:14.494Z,994.73
2019-04-05T01:03:14.520Z,994.71
2019-04-05T01:04:14.482Z,994.73
2019-04-05T01:05:14.462Z,994.71
2019-04-05T01:06:14.457Z,994.69
2019-04-05T01:07:14.456Z,994.78
2019-04-05T01:08:14.427Z,994.77
2019-04-05T01:09:14.445Z,994.79
2019-04-05T01:10:14.411Z,994.83
2019-04-05T01:11:14.405Z,994.85
2019-04-05T01:12:14.390Z,994.85
2019-04-05T01:13:14.397Z,994.89
2019-04-05T01:14:14.375Z,994.91
2019-04-05T01:15:14.358Z,994.91
2019-04-05T01:16:14.360Z,994.96
2019-04-05T01:17:24.429Z,994.92
2019-04-05T01:18:15.335Z,994.95
2019-04-05T01:19:14.328Z,994.94
2019-04-05T01:20:14.286Z,994.94
2019-04-05T01:21:14.307Z,994.94
2019-04-05T01:22:14.283Z,994.95
2019-04-05T01:23:14.272Z,994.97
2019-04-05T01:24:14.262Z,994.96
2019-04-05T01:25:14.260Z,995.00
2019-04-05T01:26:14.244Z,994.93
2019-04-05T01:27:14.215Z,994.91
2019-04-05T01:28:14.210Z,994.95
2019-04-05T01:29:14.219Z,994.92
2019-04-05T01:30:14.226Z,994.90
2019-04-05T01:31:14.186Z,994.95
2019-04-05T01:32:14.175Z,994.96
2019-04-05T01:33:14.156Z,994.97
2019-04-05T01:34:14.140Z,994.96
2019-04-05T01:35:14.168Z,995.00
2019-04-05T01:36:14.185Z,994.99
2019-04-05T01:37:14.111Z,994.98
2019-04-05T01:38:14.096Z,994.98
2019-04-05T01:39:14.078Z,995.00
2019-04-05T01:40:14.109Z,994.98
2019-04-05T01:41:14.092Z,994.99
2019-04-05T01:42:14.061Z,995.03
2019-04-05T01:43:14.046Z,995.00
2019-04-05T01:44:14.045Z,995.03
2019-04-05T01:45:14.023Z,995.04
2019-04-05T01:46:14.051Z,995.05
2019-04-05T01:47:13.999Z,995.09
2019-04-05T01:48:13.987Z,995.09
2019-04-05T01:49:14.009Z,995.12
2019-04-05T01:50:13.976Z,995.12
2019-04-05T01:51:13.976Z,995.10
2019-04-05T01:52:13.948Z,995.17
2019-04-05T01:53:13.938Z,995.14
2019-04-05T01:54:13.936Z,995.18
2019-04-05T01:55:13.918Z,995.14
2019-04-05T01:56:13.928Z,995.14
2019-04-05T01:57:13.884Z,995.17
2019-04-05T01:58:13.879Z,995.16
2019-04-05T01:59:13.874Z,995.22
2019-04-05T02:00:13.858Z,995.22
2019-04-05T02:01:13.870Z,995.21
2019-04-05T02:02:13.846Z,995.28
2019-04-05T02:03:13.830Z,995.22
2019-04-05T02:04:13.830Z,995.17
2019-04-05T02:05:13.796Z,995.18
2019-04-05T02:06:13.817Z,995.17
2019-04-05T02:07:13.780Z,995.21
2019-04-05T02:08:13.789Z,995.21
2019-04-05T02:09:13.755Z,995.22
2019-04-05T02:10:13.736Z,995.23
2019-04-05T02:11:13.739Z,995.25
2019-04-05T02:12:13.722Z,995.25
2019-04-05T02:13:13.746Z,995.23
2019-04-05T02:14:13.713Z,995.24
2019-04-05T02:15:13.697Z,995.22
2019-04-05T02:16:13.688Z,995.21
2019-04-05T02:17:13.664Z,995.22
2019-04-05T02:18:13.674Z,995.24
2019-04-05T02:19:13.640Z,995.22
2019-04-05T02:20:13.640Z,995.19
2019-04-05T02:21:13.629Z,995.20
2019-04-05T02:22:13.625Z,995.23
2019-04-05T02:23:13.619Z,995.23
2019-04-05T02:24:13.598Z,995.18
2019-04-05T02:25:13.589Z,995.30
2019-04-05T02:26:13.587Z,995.17
2019-04-05T02:27:13.570Z,995.16
2019-04-05T02:28:13.586Z,995.19
2019-04-05T02:29:13.550Z,995.13
2019-04-05T02:30:13.526Z,995.17
2019-04-05T02:31:13.529Z,995.17
2019-04-05T02:32:13.501Z,995.16
2019-04-05T02:33:13.501Z,995.11
2019-04-05T02:34:13.498Z,995.11
2019-04-05T02:35:13.509Z,995.14
2019-04-05T02:36:13.468Z,995.10
2019-04-05T02:37:13.455Z,995.13
2019-04-05T02:38:13.457Z,995.13
2019-04-05T02:39:13.451Z,995.11
2019-04-05T02:40:13.426Z,995.15
2019-04-05T02:41:13.407Z,995.15
2019-04-05T02:42:13.393Z,995.18
2019-04-05T02:43:13.375Z,995.15
2019-04-05T02:44:13.391Z,995.19
2019-04-05T02:45:13.380Z,995.14
2019-04-05T02:46:23.484Z,995.12
2019-04-05T02:47:14.343Z,995.19
2019-04-05T02:48:13.334Z,995.22
2019-04-05T02:49:13.309Z,995.18
2019-04-05T02:50:13.320Z,995.18
2019-04-05T02:51:13.284Z,995.20
2019-04-05T02:52:13.285Z,995.27
2019-04-05T02:53:13.292Z,995.27
2019-04-05T02:54:13.266Z,995.26
2019-04-05T02:55:13.257Z,995.22
2019-04-05T02:56:13.220Z,995.31
2019-04-05T02:57:13.222Z,995.26
2019-04-05T02:58:13.218Z,995.23
2019-04-05T02:59:13.197Z,995.23
2019-04-05T03:00:13.235Z,995.19
2019-04-05T03:01:13.221Z,995.21
2019-04-05T03:02:13.158Z,995.24
2019-04-05T03:03:13.152Z,995.23
2019-04-05T03:04:13.136Z,995.22
2019-04-05T03:05:13.137Z,995.26
2019-04-05T03:06:13.144Z,995.28
2019-04-05T03:07:13.113Z,995.28
2019-04-05T03:08:13.100Z,995.33
2019-04-05T03:09:13.087Z,995.33
2019-04-05T03:10:13.068Z,995.36
2019-04-05T03:11:13.103Z,995.38
2019-04-05T03:12:13.051Z,995.38
2019-04-05T03:13:13.048Z,995.35
2019-04-05T03:14:13.041Z,995.38
2019-04-05T03:15:13.008Z,995.39
2019-04-05T03:16:13.023Z,995.44
2019-04-05T03:17:13.014Z,995.38
2019-04-05T03:18:12.985Z,995.38
2019-04-05T03:19:12.977Z,995.39
2019-04-05T03:20:12.976Z,995.34
2019-04-05T03:21:12.981Z,995.38
2019-04-05T03:22:12.946Z,995.38
2019-04-05T03:23:12.939Z,995.41
2019-04-05T03:24:12.955Z,995.38
2019-04-05T03:25:12.917Z,995.43
2019-04-05T03:26:12.921Z,995.45
2019-04-05T03:27:12.914Z,995.45
2019-04-05T03:28:12.873Z,995.43
2019-04-05T03:29:12.866Z,995.44
2019-04-05T03:30:12.857Z,995.50
2019-04-05T03:31:12.874Z,995.51
2019-04-05T03:32:12.874Z,995.47
2019-04-05T03:33:12.815Z,995.44
2019-04-05T03:34:12.871Z,995.45
2019-04-05T03:35:12.826Z,995.41
2019-04-05T03:36:12.811Z,995.46
2019-04-05T03:37:12.798Z,995.52
2019-04-05T03:38:12.798Z,995.46
2019-04-05T03:39:12.751Z,995.54
2019-04-05T03:40:12.751Z,995.54
2019-04-05T03:41:12.723Z,995.54
2019-04-05T03:42:12.719Z,995.55
2019-04-05T03:43:12.720Z,995.56
2019-04-05T03:44:12.718Z,995.58
2019-04-05T03:45:12.679Z,995.59
2019-04-05T03:46:12.668Z,995.56
2019-04-05T03:47:12.659Z,995.63
2019-04-05T03:48:12.649Z,995.63
2019-04-05T03:49:12.670Z,995.64
2019-04-05T03:50:12.660Z,995.67
2019-04-05T03:51:12.631Z,995.67
2019-04-05T03:52:12.615Z,995.65
2019-04-05T03:53:12.595Z,995.63
2019-04-05T03:54:12.597Z,995.67
2019-04-05T03:55:12.591Z,995.70
2019-04-05T03:56:12.574Z,995.70
2019-04-05T03:57:12.564Z,995.67
2019-04-05T03:58:12.546Z,995.70
2019-04-05T03:59:12.560Z,995.70
2019-04-05T04:00:12.514Z,995.72
2019-04-05T04:01:12.526Z,995.76
2019-04-05T04:02:12.502Z,995.70
2019-04-05T04:03:12.488Z,995.73
2019-04-05T04:04:12.507Z,995.71
2019-04-05T04:05:12.463Z,995.75
2019-04-05T04:06:12.473Z,995.73
2019-04-05T04:07:12.444Z,995.75
2019-04-05T04:08:12.437Z,995.70
2019-04-05T04:09:12.430Z,995.73
2019-04-05T04:10:12.446Z,995.69
2019-04-05T04:11:12.399Z,995.74
2019-04-05T04:12:12.408Z,995.81
2019-04-05T04:13:12.394Z,995.82
2019-04-05T04:14:12.377Z,995.77
2019-04-05T04:15:14.077Z,995.80
2019-04-05T04:16:12.367Z,995.80
2019-04-05T04:17:13.552Z,995.82
2019-04-05T04:18:12.311Z,995.85
2019-04-05T04:19:12.311Z,995.79
2019-04-05T04:20:12.295Z,995.78
2019-04-05T04:21:12.325Z,995.75
2019-04-05T04:22:12.292Z,995.81
2019-04-05T04:23:12.292Z,995.88
2019-04-05T04:24:12.261Z,995.86
2019-04-05T04:25:12.240Z,995.92
2019-04-05T04:26:12.231Z,995.89
2019-04-05T04:27:12.246Z,995.97
2019-04-05T04:28:12.212Z,995.96
2019-04-05T04:29:12.203Z,995.97
2019-04-05T04:30:12.200Z,996.02
2019-04-05T04:31:12.164Z,996.00
2019-04-05T04:32:12.216Z,996.01
2019-04-05T04:33:12.158Z,996.02
2019-04-05T04:34:12.146Z,996.03
2019-04-05T04:35:12.163Z,996.07
2019-04-05T04:36:13.259Z,996.10
2019-04-05T04:37:12.123Z,996.11
2019-04-05T04:38:12.095Z,996.07
2019-04-05T04:39:12.086Z,996.17
2019-04-05T04:40:12.077Z,996.21
2019-04-05T04:41:12.077Z,996.20
2019-04-05T04:42:12.107Z,996.21
2019-04-05T04:43:12.050Z,996.23
2019-04-05T04:44:12.039Z,996.19
2019-04-05T04:45:12.976Z,996.28
2019-04-05T04:46:12.003Z,996.29
2019-04-05T04:47:25.122Z,996.30
2019-04-05T04:48:13.012Z,996.33
2019-04-05T04:49:11.978Z,996.30
2019-04-05T04:50:11.973Z,996.33
2019-04-05T04:51:11.959Z,996.36
2019-04-05T04:52:11.939Z,996.39
2019-04-05T04:53:11.969Z,996.41
2019-04-05T04:54:11.926Z,996.42
2019-04-05T04:55:11.926Z,996.39
2019-04-05T04:56:11.906Z,996.35
2019-04-05T04:57:11.883Z,996.35
2019-04-05T04:58:11.897Z,996.37
2019-04-05T04:59:11.869Z,996.40
2019-04-05T05:00:11.848Z,996.46
2019-04-05T05:01:11.855Z,996.42
2019-04-05T05:02:11.837Z,996.51
2019-04-05T05:03:11.905Z,996.49
2019-04-05T05:04:11.813Z,996.49
2019-04-05T05:05:11.807Z,996.54
2019-04-05T05:06:11.797Z,996.53
2019-04-05T05:07:11.780Z,996.56
2019-04-05T05:08:11.795Z,996.56
2019-04-05T05:09:11.768Z,996.59
2019-04-05T05:10:11.738Z,996.59
2019-04-05T05:11:14.740Z,996.58
2019-04-05T05:12:11.717Z,996.60
2019-04-05T05:13:11.716Z,996.58
2019-04-05T05:14:11.773Z,996.59
2019-04-05T05:15:11.698Z,996.54
2019-04-05T05:16:11.686Z,996.58
2019-04-05T05:17:11.671Z,996.53
2019-04-05T05:18:11.682Z,996.56
2019-04-05T05:19:11.660Z,996.59
2019-04-05T05:20:11.665Z,996.59
2019-04-05T05:21:11.642Z,996.60
2019-04-05T05:22:11.609Z,996.59
2019-04-05T05:23:11.603Z,996.71
2019-04-05T05:24:11.621Z,996.64
2019-04-05T05:25:11.624Z,996.56
2019-04-05T05:26:11.774Z,996.55
2019-04-05T05:27:11.572Z,996.55
2019-04-05T05:28:11.552Z,996.63
2019-04-05T05:29:12.175Z,996.61
2019-04-05T05:30:11.523Z,996.68
2019-04-05T05:31:11.546Z,996.66
2019-04-05T05:32:11.516Z,996.63
2019-04-05T05:33:11.602Z,996.69
2019-04-05T05:34:11.487Z,996.71
2019-04-05T05:35:11.507Z,996.74
2019-04-05T05:36:11.605Z,996.71
2019-04-05T05:37:11.475Z,996.64
2019-04-05T05:38:11.445Z,996.67
2019-04-05T05:39:11.440Z,996.64
2019-04-05T05:40:11.422Z,996.69
2019-04-05T05:41:11.436Z,996.69
2019-04-05T05:42:11.391Z,996.79
2019-04-05T05:43:11.385Z,996.80
2019-04-05T05:44:11.371Z,996.81
2019-04-05T05:45:11.359Z,996.90
2019-04-05T05:46:11.365Z,996.94
2019-04-05T05:47:11.347Z,997.02
2019-04-05T05:48:11.325Z,996.99
2019-04-05T05:49:11.312Z,997.00
2019-04-05T05:50:11.298Z,996.98
2019-04-05T05:51:11.322Z,997.00
2019-04-05T05:52:11.294Z,997.00
2019-04-05T05:53:11.273Z,997.03
2019-04-05T05:54:11.257Z,996.98
2019-04-05T05:55:11.242Z,996.98
2019-04-05T05:56:11.231Z,997.06
2019-04-05T05:57:11.259Z,997.07
2019-04-05T05:58:11.217Z,997.04
2019-04-05T05:59:11.228Z,997.04
2019-04-05T06:00:11.200Z,997.12
2019-04-05T06:01:13.686Z,997.08
2019-04-05T06:02:11.181Z,997.08
2019-04-05T06:03:11.978Z,997.08
2019-04-05T06:04:12.754Z,997.12
2019-04-05T06:05:11.143Z,997.13
2019-04-05T06:06:11.138Z,997.12
2019-04-05T06:07:11.161Z,997.15
2019-04-05T06:08:11.103Z,997.12
2019-04-05T06:09:11.094Z,997.16
2019-04-05T06:10:11.094Z,997.15
2019-04-05T06:11:11.077Z,997.20
2019-04-05T06:12:11.079Z,997.20
2019-04-05T06:13:11.121Z,997.23
2019-04-05T06:14:11.055Z,997.26
2019-04-05T06:15:11.034Z,997.28
2019-04-05T06:16:11.018Z,997.31
2019-04-05T06:17:11.017Z,997.28
2019-04-05T06:18:12.713Z,997.32
2019-04-05T06:19:10.991Z,997.26
2019-04-05T06:20:10.992Z,997.31
2019-04-05T06:21:10.961Z,997.31
2019-04-05T06:22:10.960Z,997.35
2019-04-05T06:23:10.974Z,997.41
2019-04-05T06:24:10.930Z,997.41
2019-04-05T06:25:10.948Z,997.37
2019-04-05T06:26:10.927Z,997.39
2019-04-05T06:27:10.899Z,997.40
2019-04-05T06:28:10.905Z,997.42
2019-04-05T06:29:10.904Z,997.41
2019-04-05T06:30:10.887Z,997.39
2019-04-05T06:31:10.874Z,997.40
2019-04-05T06:32:10.854Z,997.44
2019-04-05T06:33:10.832Z,997.44
2019-04-05T06:34:10.852Z,997.45
2019-04-05T06:35:10.799Z,997.43
2019-04-05T06:36:10.796Z,997.48
2019-04-05T06:37:10.796Z,997.41
2019-04-05T06:38:10.780Z,997.47
2019-04-05T06:39:10.769Z,997.50
2019-04-05T06:40:10.762Z,997.58
2019-04-05T06:41:10.759Z,997.59
2019-04-05T06:42:10.737Z,997.53
2019-04-05T06:43:10.744Z,997.55
2019-04-05T06:44:10.720Z,997.56
2019-04-05T06:45:10.742Z,997.58
2019-04-05T06:46:10.681Z,997.56
2019-04-05T06:47:10.673Z,997.51
2019-04-05T06:48:19.061Z,997.53
2019-04-05T06:49:11.663Z,997.47
2019-04-05T06:50:10.701Z,997.49
2019-04-05T06:51:10.625Z,997.49
2019-04-05T06:52:10.623Z,997.51
2019-04-05T06:53:10.612Z,997.52
2019-04-05T06:54:10.601Z,997.52
2019-04-05T06:55:10.623Z,997.45
2019-04-05T06:56:10.580Z,997.51
2019-04-05T06:57:10.589Z,997.52
2019-04-05T06:58:10.704Z,997.50
2019-04-05T06:59:10.557Z,997.57
2019-04-05T07:00:10.558Z,997.61
2019-04-05T07:01:10.528Z,997.66
2019-04-05T07:02:10.505Z,997.68
2019-04-05T07:03:13.452Z,997.75
2019-04-05T07:04:10.498Z,997.78
2019-04-05T07:05:10.467Z,997.80
2019-04-05T07:06:10.490Z,997.84
2019-04-05T07:07:10.450Z,997.83
2019-04-05T07:08:10.433Z,997.82
2019-04-05T07:09:10.457Z,997.85
2019-04-05T07:10:10.421Z,997.85
2019-04-05T07:11:10.399Z,997.90
2019-04-05T07:12:10.431Z,997.92
2019-04-05T07:13:10.394Z,997.91
2019-04-05T07:14:10.379Z,997.90
2019-04-05T07:15:10.374Z,997.90
2019-04-05T07:16:11.212Z,998.00
2019-04-05T07:17:10.350Z,998.02
2019-04-05T07:18:10.329Z,997.95
2019-04-05T07:19:10.330Z,998.04
2019-04-05T07:20:10.299Z,998.09
2019-04-05T07:21:10.300Z,998.03
2019-04-05T07:22:10.310Z,998.00
2019-04-05T07:23:10.276Z,998.10
2019-04-05T07:24:10.264Z,998.10
2019-04-05T07:25:10.246Z,998.10
2019-04-05T07:26:10.230Z,998.08
2019-04-05T07:27:10.236Z,998.13
2019-04-05T07:28:10.246Z,998.15
2019-04-05T07:29:10.215Z,998.21
2019-04-05T07:30:10.206Z,998.21
2019-04-05T07:31:10.187Z,998.23
2019-04-05T07:32:10.171Z,998.16
2019-04-05T07:33:10.204Z,998.29
2019-04-05T07:34:10.164Z,998.36
2019-04-05T07:35:10.171Z,998.39
2019-04-05T07:36:10.131Z,998.39
2019-04-05T07:37:10.118Z,998.40
2019-04-05T07:38:10.106Z,998.34
2019-04-05T07:39:10.124Z,998.33
2019-04-05T07:40:10.077Z,998.31
2019-04-05T07:41:10.091Z,998.32
2019-04-05T07:42:10.088Z,998.37
2019-04-05T07:43:10.051Z,998.46
2019-04-05T07:44:10.060Z,998.42
2019-04-05T07:45:10.044Z,998.39
2019-04-05T07:46:10.030Z,998.37
2019-04-05T07:47:10.021Z,998.43
2019-04-05T07:48:09.998Z,998.43
2019-04-05T07:49:10.043Z,998.41
2019-04-05T07:50:09.983Z,998.47
2019-04-05T07:51:09.960Z,998.41
2019-04-05T07:52:12.804Z,998.48
2019-04-05T07:53:09.958Z,998.54
2019-04-05T07:54:09.958Z,998.54
2019-04-05T07:55:09.931Z,998.57
2019-04-05T07:56:09.927Z,998.56
2019-04-05T07:57:09.886Z,998.51
2019-04-05T07:58:09.884Z,998.56
2019-04-05T07:59:09.884Z,998.55
2019-04-05T08:00:09.912Z,998.55
2019-04-05T08:01:09.844Z,998.60
2019-04-05T08:02:09.843Z,998.58
2019-04-05T08:03:09.824Z,998.58
2019-04-05T08:04:09.825Z,998.56
2019-04-05T08:05:09.825Z,998.53
2019-04-05T08:06:09.820Z,998.53
2019-04-05T08:07:09.811Z,998.53
2019-04-05T08:08:09.773Z,998.54
2019-04-05T08:09:09.763Z,998.54
2019-04-05T08:10:09.751Z,998.55
2019-04-05T08:11:09.733Z,998.53
2019-04-05T08:12:09.766Z,998.55
2019-04-05T08:13:09.723Z,998.57
2019-04-05T08:14:09.714Z,998.61
2019-04-05T08:15:09.733Z,998.55
2019-04-05T08:16:09.690Z,998.61
2019-04-05T08:17:09.705Z,998.63
2019-04-05T08:18:09.674Z,998.57
2019-04-05T08:19:09.660Z,998.61
2019-04-05T08:20:09.652Z,998.63
2019-04-05T08:21:09.622Z,998.57
2019-04-05T08:22:09.622Z,998.63
2019-04-05T08:23:09.632Z,998.64
2019-04-05T08:24:09.601Z,998.63
2019-04-05T08:25:09.594Z,998.58
2019-04-05T08:26:09.581Z,998.66
2019-04-05T08:27:09.572Z,998.63
2019-04-05T08:28:09.580Z,998.62
2019-04-05T08:29:09.543Z,998.65
2019-04-05T08:30:09.525Z,998.61
2019-04-05T08:31:10.745Z,998.67
2019-04-05T08:32:14.694Z,998.70
2019-04-05T08:33:10.509Z,998.66
2019-04-05T08:34:09.481Z,998.67
2019-04-05T08:35:09.479Z,998.63
2019-04-05T08:36:09.467Z,998.71
2019-04-05T08:37:09.485Z,998.67
2019-04-05T08:38:09.466Z,998.67
2019-04-05T08:39:09.445Z,998.64
2019-04-05T08:40:09.423Z,998.60
2019-04-05T08:41:09.442Z,998.57
2019-04-05T08:42:10.858Z,998.62
2019-04-05T08:43:09.385Z,998.64
2019-04-05T08:44:09.378Z,998.67
2019-04-05T08:45:09.374Z,998.65
2019-04-05T08:46:09.383Z,998.64
2019-04-05T08:47:09.353Z,998.68
2019-04-05T08:48:09.334Z,998.70
2019-04-05T08:49:11.530Z,998.71
2019-04-05T08:50:09.320Z,998.71
2019-04-05T08:51:09.308Z,998.70
2019-04-05T08:52:09.327Z,998.66
2019-04-05T08:53:09.274Z,998.70
2019-04-05T08:54:09.275Z,998.69
2019-04-05T08:55:09.252Z,998.71
2019-04-05T08:56:09.256Z,998.74
2019-04-05T08:57:09.236Z,998.72
2019-04-05T08:58:09.228Z,998.69
2019-04-05T08:59:09.223Z,998.66
2019-04-05T09:00:09.213Z,998.67
2019-04-05T09:01:09.187Z,998.66
2019-04-05T09:02:09.189Z,998.75
2019-04-05T09:03:11.806Z,998.73
2019-04-05T09:04:09.176Z,998.70
2019-04-05T09:05:09.135Z,998.67
2019-04-05T09:06:09.127Z,998.66
2019-04-05T09:07:09.140Z,998.67
2019-04-05T09:08:09.108Z,998.72
2019-04-05T09:09:09.110Z,998.71
2019-04-05T09:10:09.102Z,998.75
2019-04-05T09:11:09.086Z,998.80
2019-04-05T09:12:09.104Z,998.83
2019-04-05T09:13:09.063Z,998.81
2019-04-05T09:14:09.068Z,998.78
2019-04-05T09:15:09.029Z,998.77
2019-04-05T09:16:11.582Z,998.75
2019-04-05T09:17:09.030Z,998.76
2019-04-05T09:18:09.038Z,998.82
2019-04-05T09:19:08.991Z,998.89
2019-04-05T09:20:08.978Z,998.90
2019-04-05T09:21:10.232Z,998.92
2019-04-05T09:22:08.971Z,998.90
2019-04-05T09:23:08.977Z,998.91
2019-04-05T09:24:08.994Z,998.90
2019-04-05T09:25:08.923Z,998.94
2019-04-05T09:26:08.907Z,999.04
2019-04-05T09:27:08.917Z,999.08
2019-04-05T09:28:08.892Z,999.04
2019-04-05T09:29:09.466Z,999.08
2019-04-05T09:30:08.879Z,999.09
2019-04-05T09:31:08.873Z,999.08
2019-04-05T09:32:08.858Z,999.01
2019-04-05T09:33:08.840Z,998.98
2019-04-05T09:34:08.844Z,998.97
2019-04-05T09:35:08.822Z,998.95
2019-04-05T09:36:08.809Z,998.97
2019-04-05T09:37:08.826Z,999.00
2019-04-05T09:38:08.791Z,999.00
2019-04-05T09:39:12.665Z,998.99
2019-04-05T09:40:09.772Z,999.00
2019-04-05T09:41:08.758Z,998.97
2019-04-05T09:42:08.750Z,999.02
2019-04-05T09:43:08.741Z,999.03
2019-04-05T09:44:08.717Z,999.06
2019-04-05T09:45:08.724Z,999.08
2019-04-05T09:46:08.689Z,999.07
2019-04-05T09:47:08.695Z,999.04
2019-04-05T09:48:08.685Z,999.07
2019-04-05T09:49:08.670Z,999.12
2019-04-05T09:50:08.684Z,999.13
2019-04-05T09:51:08.636Z,999.18
2019-04-05T09:52:08.624Z,999.18
2019-04-05T09:53:08.630Z,999.11
2019-04-05T09:54:08.655Z,999.15
2019-04-05T09:55:08.645Z,999.15
2019-04-05T09:56:08.583Z,999.20
2019-04-05T09:57:08.583Z,999.16
2019-04-05T09:58:10.130Z,999.18
2019-04-05T09:59:08.545Z,999.20
2019-04-05T10:00:08.541Z,999.23
2019-04-05T10:01:08.565Z,999.22
2019-04-05T10:02:08.529Z,999.23
2019-04-05T10:03:08.522Z,999.22
2019-04-05T10:04:08.503Z,999.22
2019-04-05T10:05:08.494Z,999.27
2019-04-05T10:06:08.500Z,999.26
2019-04-05T10:07:08.470Z,999.24
2019-04-05T10:08:08.456Z,999.28
2019-04-05T10:09:08.466Z,999.33
2019-04-05T10:10:08.428Z,999.30
2019-04-05T10:11:08.417Z,999.33
2019-04-05T10:12:08.432Z,999.36
2019-04-05T10:13:09.919Z,999.43
2019-04-05T10:14:08.397Z,999.41
2019-04-05T10:15:08.382Z,999.38
2019-04-05T10:16:08.384Z,999.37
2019-04-05T10:17:08.378Z,999.38
2019-04-05T10:18:08.353Z,999.44
2019-04-05T10:19:08.327Z,999.46
2019-04-05T10:20:08.330Z,999.43
2019-04-05T10:21:08.317Z,999.52
2019-04-05T10:22:08.323Z,999.53
2019-04-05T10:23:08.288Z,999.53
2019-04-05T10:24:08.274Z,999.50
2019-04-05T10:25:08.281Z,999.52
2019-04-05T10:26:08.272Z,999.50
2019-04-05T10:27:08.285Z,999.51
2019-04-05T10:28:08.239Z,999.57
2019-04-05T10:29:08.233Z,999.54
2019-04-05T10:30:08.272Z,999.49
2019-04-05T10:31:08.200Z,999.61
2019-04-05T10:32:08.190Z,999.56
2019-04-05T10:33:08.203Z,999.59
2019-04-05T10:34:08.196Z,999.56
2019-04-05T10:35:08.172Z,999.60
2019-04-05T10:36:08.173Z,999.58
2019-04-05T10:37:08.127Z,999.65
2019-04-05T10:38:08.158Z,999.62
2019-04-05T10:39:08.135Z,999.58
2019-04-05T10:40:08.173Z,999.59
2019-04-05T10:41:08.108Z,999.61
2019-04-05T10:42:08.091Z,999.59
2019-04-05T10:43:08.094Z,999.58
2019-04-05T10:44:08.055Z,999.58
2019-04-05T10:45:08.053Z,999.60
2019-04-05T10:46:08.052Z,999.63
2019-04-05T10:47:08.032Z,999.62
2019-04-05T10:48:08.032Z,999.65
2019-04-05T10:49:08.047Z,999.63
2019-04-05T10:50:08.000Z,999.63
2019-04-05T10:51:07.979Z,999.66
2019-04-05T10:52:07.967Z,999.63
2019-04-05T10:53:07.992Z,999.65
2019-04-05T10:54:09.491Z,999.63
2019-04-05T10:55:07.930Z,999.62
2019-04-05T10:56:07.925Z,999.65
2019-04-05T10:57:07.919Z,999.65
2019-04-05T10:58:07.917Z,999.65
2019-04-05T10:59:07.948Z,999.72
2019-04-05T11:00:07.888Z,999.71
2019-04-05T11:01:07.861Z,999.69
2019-04-05T11:02:07.851Z,999.70
2019-04-05T11:03:07.846Z,999.75
2019-04-05T11:04:07.858Z,999.79
2019-04-05T11:05:07.831Z,999.75
2019-04-05T11:06:07.822Z,999.80
2019-04-05T11:07:07.808Z,999.76
2019-04-05T11:08:07.810Z,999.79
2019-04-05T11:09:07.855Z,999.85
2019-04-05T11:10:07.770Z,999.86
2019-04-05T11:11:07.774Z,999.93
2019-04-05T11:12:08.751Z,999.91
2019-04-05T11:13:07.730Z,999.93
2019-04-05T11:14:13.658Z,999.89
2019-04-05T11:15:08.722Z,999.95
2019-04-05T11:16:07.718Z,999.95
2019-04-05T11:17:07.694Z,999.94
2019-04-05T11:18:07.692Z,999.89
2019-04-05T11:19:07.673Z,999.88
2019-04-05T11:20:20.664Z,999.92
2019-04-05T11:21:08.646Z,999.91
2019-04-05T11:22:07.630Z,999.90
2019-04-05T11:23:07.625Z,999.92
2019-04-05T11:24:07.617Z,999.93
2019-04-05T11:25:07.635Z,999.94
2019-04-05T11:26:07.606Z,999.92
2019-04-05T11:27:07.581Z,999.92
2019-04-05T11:28:07.571Z,999.90
2019-04-05T11:29:07.565Z,999.84
2019-04-05T11:30:07.570Z,999.82
2019-04-05T11:31:07.548Z,999.84
2019-04-05T11:32:07.533Z,999.85
2019-04-05T11:33:07.514Z,999.84
2019-04-05T11:34:07.506Z,999.86
2019-04-05T11:35:07.531Z,999.89
2019-04-05T11:36:07.482Z,999.87
2019-04-05T11:37:07.476Z,999.91
2019-04-05T11:38:07.464Z,999.91
2019-04-05T11:39:07.459Z,999.90
2019-04-05T11:40:07.440Z,999.92
2019-04-05T11:41:07.457Z,999.89
2019-04-05T11:42:07.413Z,999.91
2019-04-05T11:43:07.414Z,999.94
2019-04-05T11:44:07.398Z,999.92
2019-04-05T11:45:07.379Z,999.93
2019-04-05T11:46:07.400Z,999.94
2019-04-05T11:47:07.367Z,999.94
2019-04-05T11:48:07.361Z,999.93
2019-04-05T11:49:07.345Z,1000.00
2019-04-05T11:50:07.338Z,999.97
2019-04-05T11:51:07.319Z,999.93
2019-04-05T11:52:07.350Z,999.97
2019-04-05T11:53:07.298Z,999.99
2019-04-05T11:54:07.285Z,1000.04
2019-04-05T11:55:07.274Z,1000.00
2019-04-05T11:56:14.640Z,999.96
2019-04-05T11:57:08.275Z,999.97
2019-04-05T11:58:07.268Z,999.96
2019-04-05T11:59:07.242Z,1000.06
2019-04-05T12:00:07.215Z,1000.03
2019-04-05T12:01:07.230Z,999.93
2019-04-05T12:02:07.208Z,999.96
2019-04-05T12:03:09.594Z,999.95
2019-04-05T12:04:07.193Z,999.98
2019-04-05T12:05:07.153Z,1000.01
2019-04-05T12:06:07.147Z,1000.02
2019-04-05T12:07:07.145Z,1000.04
2019-04-05T12:08:07.148Z,1000.01
2019-04-05T12:09:07.158Z,1000.03
2019-04-05T12:10:07.112Z,1000.03
2019-04-05T12:11:07.122Z,1000.01
2019-04-05T12:12:07.094Z,1000.06
2019-04-05T12:13:07.090Z,1000.03
2019-04-05T12:14:07.067Z,1000.01
2019-04-05T12:15:07.061Z,1000.03
2019-04-05T12:16:10.259Z,999.99
2019-04-05T12:17:09.632Z,1000.07
2019-04-05T12:18:07.043Z,1000.04
2019-04-05T12:19:07.032Z,1000.03
2019-04-05T12:20:06.992Z,1000.05
2019-04-05T12:21:06.992Z,1000.11
2019-04-05T12:22:09.191Z,1000.07
2019-04-05T12:23:06.988Z,1000.07
2019-04-05T12:24:06.960Z,1000.06
2019-04-05T12:25:06.953Z,1000.10
2019-04-05T12:26:06.962Z,1000.13
2019-04-05T12:27:06.922Z,1000.14